Time;durP1;ratioP1;P1;durP2;ratioP2;P2;SDS_P1;SDS_P2;PMS_P1;PMS_P2;Temp;Humidity;BMP_temperature;BMP_pressure;BME280_temperature;BME280_humidity;BME280_pressure;Samples;Min_cycle;Max_cycle;Signal;HPM_P1;HPM_P2
2022/03/31 00:00:37;;;;;;;4.40;2.22;;;3.20;99.90;;;;;;5019832;28;90554;-31
2022/03/31 00:03:06;;;;;;;10.02;1.80;;;3.20;99.90;;;;;;5002588;28;89568;-36
2022/03/31 00:05:32;;;;;;;4.80;2.30;;;3.30;99.90;;;;;;5020060;28;90005;-32
2022/03/31 00:08:07;;;;;;;4.00;2.10;;;3.20;99.90;;;;;;5019273;28;90785;-32
2022/03/31 00:10:40;;;;;;;6.10;2.22;;;3.20;99.90;;;;;;5019761;28;91034;-33
2022/03/31 00:13:10;;;;;;;5.53;1.98;;;3.20;99.90;;;;;;5019560;28;90534;-35
2022/03/31 00:15:37;;;;;;;5.75;1.90;;;3.20;99.90;;;;;;5019552;28;89334;-32
2022/03/31 00:18:05;;;;;;;3.63;2.70;;;3.20;99.90;;;;;;5020113;28;90754;-34
2022/03/31 00:23:52;;;;;;;2.25;1.48;;;3.20;99.90;;;;;;4979773;28;89663;-34
2022/03/31 00:26:18;;;;;;;2.30;2.10;;;3.20;99.90;;;;;;4979655;28;89693;-33
2022/03/31 00:28:44;;;;;;;2.35;1.90;;;3.20;99.90;;;;;;4979105;28;90129;-33
2022/03/31 00:31:09;;;;;;;8.55;2.67;;;3.20;99.90;;;;;;4979367;28;88870;-34
2022/03/31 00:33:35;;;;;;;5.13;1.83;;;3.20;99.90;;;;;;4979935;28;89776;-36
2022/03/31 00:36:00;;;;;;;5.88;2.17;;;3.20;99.90;;;;;;4979114;28;89246;-34
2022/03/31 00:38:26;;;;;;;2.50;1.65;;;3.10;99.90;;;;;;4979805;28;90085;-33
2022/03/31 00:40:52;;;;;;;4.20;2.55;;;3.10;99.90;;;;;;4979230;28;89918;-35
2022/03/31 00:43:18;;;;;;;5.35;2.35;;;3.20;99.90;;;;;;4979720;28;89236;-38
2022/03/31 00:45:46;;;;;;;2.67;2.45;;;3.10;99.90;;;;;;4979812;28;87806;-34
2022/03/31 00:48:13;;;;;;;6.43;2.78;;;3.20;99.90;;;;;;4979006;28;90891;-34
2022/03/31 00:50:39;;;;;;;2.80;2.22;;;3.20;99.90;;;;;;4978577;28;89541;-35
2022/03/31 00:53:05;;;;;;;5.88;2.85;;;3.10;99.90;;;;;;4980143;28;89736;-36
2022/03/31 00:55:31;;;;;;;3.03;2.70;;;3.00;99.90;;;;;;4982950;28;88675;-34
2022/03/31 00:57:58;;;;;;;6.05;3.15;;;3.10;99.90;;;;;;4982197;28;90312;-34
2022/03/31 01:00:24;;;;;;;4.25;2.90;;;3.00;99.90;;;;;;4982953;28;90485;-34
2022/03/31 01:02:50;;;;;;;3.97;3.17;;;2.90;99.90;;;;;;4982176;28;89516;-36
2022/03/31 01:05:16;;;;;;;11.10;4.50;;;2.90;99.90;;;;;;4982419;28;89316;-32
2022/03/31 01:07:42;;;;;;;9.43;4.07;;;2.90;99.90;;;;;;4982288;28;89276;-33
2022/03/31 01:10:10;;;;;;;5.60;3.88;;;2.90;99.90;;;;;;4982392;28;89671;-33
2022/03/31 01:12:36;;;;;;;5.33;4.13;;;2.80;99.90;;;;;;4982727;28;89560;-34
2022/03/31 01:15:09;;;;;;;10.75;5.15;;;2.80;99.90;;;;;;4983413;28;88089;-33
2022/03/31 01:17:38;;;;;;;15.18;5.50;;;2.80;99.90;;;;;;4982348;28;90796;-36
2022/03/31 01:20:05;;;;;;;10.15;6.00;;;2.80;99.90;;;;;;4981795;28;90070;-36
2022/03/31 01:22:32;;;;;;;7.55;5.72;;;2.80;99.90;;;;;;4982456;28;90781;-33
2022/03/31 01:25:02;;;;;;;5.88;5.30;;;2.70;99.90;;;;;;4981826;28;90181;-36
2022/03/31 01:27:29;;;;;;;5.63;5.13;;;2.80;99.90;;;;;;4981745;28;90144;-36
2022/03/31 01:29:54;;;;;;;9.48;6.72;;;2.70;99.90;;;;;;4982066;28;90210;-33
2022/03/31 01:32:21;;;;;;;8.65;6.45;;;2.70;99.90;;;;;;4982134;28;90199;-32
2022/03/31 01:34:48;;;;;;;10.15;5.53;;;2.80;99.90;;;;;;4981920;28;90116;-34
2022/03/31 01:37:14;;;;;;;9.75;6.05;;;2.70;99.90;;;;;;4982015;28;90699;-34
2022/03/31 01:39:40;;;;;;;8.13;5.80;;;2.80;99.90;;;;;;4982050;28;89495;-33
2022/03/31 01:42:07;;;;;;;5.97;5.05;;;2.70;99.90;;;;;;4982134;28;88483;-37
2022/03/31 01:44:33;;;;;;;8.82;5.90;;;2.80;99.90;;;;;;4982615;28;88041;-37
2022/03/31 01:46:59;;;;;;;5.93;4.95;;;2.80;99.90;;;;;;4982010;28;90348;-33
2022/03/31 01:49:24;;;;;;;10.27;5.63;;;2.80;99.90;;;;;;4981820;28;90669;-32
2022/03/31 01:51:50;;;;;;;7.85;5.60;;;2.70;99.90;;;;;;4981509;28;90457;-34
2022/03/31 01:54:17;;;;;;;10.23;5.60;;;2.70;99.90;;;;;;4982130;28;90665;-34
2022/03/31 01:56:43;;;;;;;8.50;5.32;;;2.70;99.90;;;;;;4981693;28;90614;-33
2022/03/31 01:59:09;;;;;;;11.90;5.40;;;2.70;99.90;;;;;;4982107;28;90025;-33
2022/03/31 02:01:35;;;;;;;6.70;4.68;;;2.70;99.90;;;;;;4981521;28;89883;-39
2022/03/31 02:04:00;;;;;;;6.60;4.95;;;2.70;99.90;;;;;;4981921;28;88862;-36
2022/03/31 02:06:26;;;;;;;7.22;4.78;;;2.70;99.90;;;;;;4981521;28;92187;-35
2022/03/31 02:08:52;;;;;;;5.60;4.80;;;2.70;99.90;;;;;;4981468;28;90111;-33
2022/03/31 02:11:18;;;;;;;9.55;5.65;;;2.70;99.90;;;;;;4981803;28;90461;-35
2022/03/31 02:13:44;;;;;;;7.18;5.32;;;2.80;99.90;;;;;;4981289;28;90539;-32
2022/03/31 02:16:10;;;;;;;6.20;5.57;;;2.80;99.90;;;;;;4981706;28;90226;-37
2022/03/31 02:18:36;;;;;;;6.05;5.45;;;2.70;99.90;;;;;;4980840;28;89612;-34
2022/03/31 02:21:02;;;;;;;9.93;5.70;;;2.80;99.90;;;;;;4981482;28;89499;-34
2022/03/31 02:23:28;;;;;;;7.18;6.20;;;2.70;99.90;;;;;;4982102;28;89371;-32
2022/03/31 02:25:53;;;;;;;9.68;5.95;;;2.70;99.90;;;;;;4981123;28;90769;-37
2022/03/31 02:28:19;;;;;;;6.95;6.05;;;2.60;99.90;;;;;;4981746;28;88430;-35
2022/03/31 02:30:45;;;;;;;7.70;6.28;;;2.60;99.90;;;;;;4981133;28;90968;-35
2022/03/31 02:33:10;;;;;;;7.40;6.10;;;2.60;99.90;;;;;;4981054;28;89793;-34
2022/03/31 02:35:36;;;;;;;10.45;6.25;;;2.60;99.90;;;;;;4981397;28;91742;-33
2022/03/31 02:38:02;;;;;;;8.35;6.82;;;2.60;99.90;;;;;;4980290;28;91090;-32
2022/03/31 02:40:28;;;;;;;10.35;7.13;;;2.60;99.90;;;;;;4981453;28;89819;-32
2022/03/31 02:42:53;;;;;;;12.43;8.07;;;2.60;99.90;;;;;;4980995;28;89131;-33
2022/03/31 02:45:20;;;;;;;8.38;7.57;;;2.60;99.90;;;;;;4981338;28;90330;-38
2022/03/31 02:47:46;;;;;;;8.65;7.75;;;2.50;99.90;;;;;;4980689;28;92102;-33
2022/03/31 02:50:12;;;;;;;8.88;7.97;;;2.50;99.90;;;;;;4981107;28;89693;-33
2022/03/31 02:55:25;;;;;;;10.65;8.30;;;2.60;99.90;;;;;;4981092;28;89335;-35
2022/03/31 02:57:51;;;;;;;;;;;2.50;99.90;;;;;;4981186;28;89604;-36
2022/03/31 03:00:17;;;;;;;13.43;8.10;;;2.50;99.90;;;;;;4982651;28;88572;-34
2022/03/31 03:02:43;;;;;;;11.00;9.23;;;2.50;99.90;;;;;;4980558;28;89947;-33
2022/03/31 03:05:08;;;;;;;8.77;7.53;;;2.40;99.90;;;;;;4980809;28;89163;-34
2022/03/31 03:07:34;;;;;;;10.27;9.13;;;2.50;99.90;;;;;;4981216;28;90163;-36
2022/03/31 03:10:00;;;;;;;11.48;9.85;;;2.50;99.90;;;;;;4980595;28;89274;-35
2022/03/31 03:12:25;;;;;;;12.50;9.68;;;2.50;99.90;;;;;;4981021;28;88031;-35
2022/03/31 03:14:51;;;;;;;10.10;9.13;;;2.50;99.90;;;;;;4980461;28;91461;-34
2022/03/31 03:17:17;;;;;;;10.88;9.88;;;2.40;99.90;;;;;;4980134;28;89426;-34
2022/03/31 03:19:43;;;;;;;11.75;9.70;;;2.50;99.90;;;;;;4980703;28;90371;-33
2022/03/31 03:22:09;;;;;;;12.95;9.93;;;2.50;99.90;;;;;;4980649;28;89946;-33
2022/03/31 03:24:34;;;;;;;11.90;10.70;;;2.50;99.90;;;;;;4980593;28;88972;-39
2022/03/31 03:27:00;;;;;;;13.07;11.80;;;2.50;99.90;;;;;;4979533;28;89810;-34
2022/03/31 03:29:26;;;;;;;11.30;9.80;;;2.50;99.90;;;;;;4980131;28;90442;-36
2022/03/31 03:31:52;;;;;;;11.25;9.98;;;2.50;99.90;;;;;;4980328;28;88974;-33
2022/03/31 03:34:18;;;;;;;11.63;10.45;;;2.50;99.90;;;;;;4979510;28;89131;-33
2022/03/31 03:36:43;;;;;;;12.57;11.38;;;2.50;99.90;;;;;;4979771;28;89850;-35
2022/03/31 03:39:11;;;;;;;13.43;11.20;;;2.50;99.90;;;;;;4979563;28;89646;-35
2022/03/31 03:41:37;;;;;;;11.88;10.57;;;2.50;99.90;;;;;;4979561;28;89456;-33
2022/03/31 03:44:03;;;;;;;13.18;10.50;;;2.60;99.90;;;;;;4979496;28;90322;-36
2022/03/31 03:46:30;;;;;;;12.43;11.25;;;2.50;99.90;;;;;;4979241;28;90556;-35
2022/03/31 03:48:56;;;;;;;13.45;11.93;;;2.50;99.90;;;;;;4979282;28;89652;-35
2022/03/31 03:51:24;;;;;;;12.88;11.73;;;2.50;99.90;;;;;;4979343;28;88024;-35
2022/03/31 03:53:50;;;;;;;13.43;11.85;;;2.50;99.90;;;;;;4979218;28;90472;-32
2022/03/31 03:56:17;;;;;;;12.48;11.23;;;2.50;99.90;;;;;;4979287;28;89740;-33
2022/03/31 03:58:42;;;;;;;12.60;11.38;;;2.50;99.90;;;;;;4979425;28;89635;-35
2022/03/31 04:01:08;;;;;;;11.73;10.60;;;2.50;99.90;;;;;;4979570;28;88204;-33
2022/03/31 04:03:35;;;;;;;11.70;10.55;;;2.50;99.90;;;;;;4979768;28;90376;-38
2022/03/31 04:06:00;;;;;;;15.90;12.15;;;2.50;99.90;;;;;;4979816;28;89985;-33
2022/03/31 04:08:26;;;;;;;9.75;8.75;;;2.60;99.90;;;;;;4978926;28;90181;-34
2022/03/31 04:10:51;;;;;;;12.40;11.20;;;2.50;99.90;;;;;;4980219;28;88956;-35
2022/03/31 04:13:17;;;;;;;13.50;12.18;;;2.60;99.90;;;;;;4978746;28;89945;-36
2022/03/31 04:15:42;;;;;;;11.00;10.00;;;2.60;99.90;;;;;;4978509;28;90560;-36
2022/03/31 04:18:09;;;;;;;12.30;11.18;;;2.60;99.90;;;;;;4979281;28;90497;-33
2022/03/31 04:20:35;;;;;;;10.38;9.38;;;2.60;99.90;;;;;;4978066;28;89209;-33
2022/03/31 04:23:01;;;;;;;12.93;10.90;;;2.50;99.90;;;;;;4979510;28;90217;-35
2022/03/31 04:25:27;;;;;;;15.50;11.18;;;2.50;99.90;;;;;;4979629;28;89792;-35
2022/03/31 04:27:52;;;;;;;11.85;10.73;;;2.50;99.90;;;;;;4979077;28;90267;-34
2022/03/31 04:30:20;;;;;;;12.68;11.38;;;2.50;99.90;;;;;;4962020;28;88224;-32
2022/03/31 04:32:47;;;;;;;12.02;10.80;;;2.50;99.90;;;;;;4978611;28;92041;-34
2022/03/31 04:35:14;;;;;;;12.18;11.07;;;2.50;99.90;;;;;;4978555;28;89973;-35
2022/03/31 04:37:40;;;;;;;12.68;11.27;;;2.50;99.90;;;;;;4979146;28;91369;-34
2022/03/31 04:40:07;;;;;;;14.40;12.00;;;2.50;99.90;;;;;;4978385;28;89726;-37
2022/03/31 04:42:33;;;;;;;11.60;10.05;;;2.50;99.90;;;;;;4978921;28;90346;-36
2022/03/31 04:44:59;;;;;;;13.05;11.32;;;2.50;99.90;;;;;;4979033;28;89723;-35
2022/03/31 04:47:25;;;;;;;11.45;9.98;;;2.50;99.90;;;;;;4978252;28;90834;-35
2022/03/31 04:49:50;;;;;;;11.30;10.10;;;2.50;99.90;;;;;;4978704;28;88981;-34
2022/03/31 04:52:16;;;;;;;12.20;10.85;;;2.50;99.90;;;;;;4979077;28;99383;-32
2022/03/31 04:54:44;;;;;;;13.45;11.52;;;2.40;99.90;;;;;;4977966;28;92675;-35
2022/03/31 04:57:14;;;;;;;;;;;2.50;99.90;;;;;;4979499;28;89585;-34
2022/03/31 04:59:40;;;;;;;11.80;10.60;;;2.40;99.90;;;;;;4980471;28;87723;-34
2022/03/31 05:02:06;;;;;;;10.57;9.27;;;2.50;99.90;;;;;;4979098;28;90823;-33
2022/03/31 05:04:32;;;;;;;11.55;10.43;;;2.40;99.90;;;;;;4978796;28;90523;-35
2022/03/31 05:06:58;;;;;;;13.18;11.85;;;2.50;99.90;;;;;;4978217;28;90802;-33
2022/03/31 05:09:24;;;;;;;12.98;11.68;;;2.40;99.90;;;;;;4978406;28;89575;-32
2022/03/31 05:11:49;;;;;;;11.13;9.95;;;2.40;99.90;;;;;;4978171;28;90353;-33
2022/03/31 05:14:15;;;;;;;13.05;10.95;;;2.40;99.90;;;;;;4979383;28;89328;-33
2022/03/31 05:16:41;;;;;;;12.23;10.90;;;2.40;99.90;;;;;;4978158;28;89445;-36
2022/03/31 05:19:06;;;;;;;13.35;12.07;;;2.40;99.90;;;;;;4978382;28;89463;-32
2022/03/31 05:21:32;;;;;;;13.45;11.82;;;2.40;99.90;;;;;;4978229;28;90209;-34
2022/03/31 05:23:57;;;;;;;12.65;11.32;;;2.40;99.90;;;;;;4977972;28;89859;-33
2022/03/31 05:26:23;;;;;;;12.13;10.98;;;2.40;99.90;;;;;;4978504;28;89509;-33
2022/03/31 05:28:49;;;;;;;12.43;11.15;;;2.40;99.90;;;;;;4977652;28;90898;-37
2022/03/31 05:31:15;;;;;;;13.70;12.30;;;2.40;99.90;;;;;;4979039;28;90360;-32
2022/03/31 05:33:40;;;;;;;13.63;12.25;;;2.50;99.90;;;;;;4976698;28;89528;-33
2022/03/31 05:36:06;;;;;;;11.55;10.35;;;2.30;99.90;;;;;;4960537;28;90305;-32
2022/03/31 05:38:32;;;;;;;14.63;13.20;;;2.40;99.90;;;;;;4978076;28;89328;-35
2022/03/31 05:40:57;;;;;;;13.30;12.00;;;2.40;99.90;;;;;;4981540;28;90510;-34
2022/03/31 05:43:23;;;;;;;14.85;13.45;;;2.30;99.90;;;;;;4981473;28;90307;-33
2022/03/31 05:45:49;;;;;;;14.80;13.30;;;2.40;99.90;;;;;;4980726;28;89426;-36
2022/03/31 05:48:15;;;;;;;14.18;12.68;;;2.40;99.90;;;;;;4981587;28;88972;-33
2022/03/31 05:50:41;;;;;;;14.88;13.43;;;2.40;99.90;;;;;;4981184;28;89517;-34
2022/03/31 05:53:06;;;;;;;14.77;13.27;;;2.40;99.90;;;;;;4980943;28;90626;-38
2022/03/31 05:55:32;;;;;;;15.82;14.10;;;2.30;99.90;;;;;;4981158;28;90768;-34
2022/03/31 05:57:58;;;;;;;14.13;12.65;;;2.30;99.90;;;;;;4980215;28;89913;-33
2022/03/31 06:00:24;;;;;;;15.15;13.68;;;2.40;99.90;;;;;;4981537;28;90777;-36
2022/03/31 06:02:50;;;;;;;16.45;14.95;;;2.40;99.90;;;;;;4980542;28;89528;-35
2022/03/31 06:05:17;;;;;;;15.05;13.57;;;2.40;99.90;;;;;;4981101;28;89640;-35
2022/03/31 06:07:43;;;;;;;14.75;13.27;;;2.40;99.90;;;;;;4980825;28;89014;-33
2022/03/31 06:10:09;;;;;;;15.23;13.63;;;2.40;99.90;;;;;;4981041;28;90649;-34
2022/03/31 06:12:35;;;;;;;15.80;14.07;;;2.40;99.90;;;;;;4980548;28;89335;-38
2022/03/31 06:15:02;;;;;;;14.95;13.02;;;2.40;99.90;;;;;;4980952;28;89458;-33
2022/03/31 06:17:27;;;;;;;16.08;14.43;;;2.30;99.90;;;;;;4980445;28;90799;-33
2022/03/31 06:19:53;;;;;;;16.27;14.55;;;2.30;99.90;;;;;;4980258;28;90493;-33
2022/03/31 06:22:19;;;;;;;16.95;14.98;;;2.30;99.90;;;;;;4980791;28;89731;-34
2022/03/31 06:24:44;;;;;;;15.80;14.13;;;2.30;99.90;;;;;;4980962;28;88997;-33
2022/03/31 06:27:11;;;;;;;16.77;15.05;;;2.30;99.90;;;;;;4981056;28;89645;-34
2022/03/31 06:29:37;;;;;;;19.08;17.15;;;2.30;99.90;;;;;;4980003;28;90580;-32
2022/03/31 06:32:03;;;;;;;18.85;16.95;;;2.30;99.90;;;;;;4980578;28;89403;-33
2022/03/31 06:34:28;;;;;;;16.13;14.43;;;2.30;99.90;;;;;;4980269;28;89284;-37
2022/03/31 06:36:55;;;;;;;17.45;15.65;;;2.30;99.90;;;;;;4980258;28;88673;-34
2022/03/31 06:39:21;;;;;;;18.88;15.95;;;2.40;99.90;;;;;;4981266;28;90262;-36
2022/03/31 06:41:47;;;;;;;16.77;15.00;;;2.40;99.90;;;;;;4979958;28;90532;-32
2022/03/31 06:44:13;;;;;;;18.67;16.73;;;2.40;99.90;;;;;;4980502;28;90293;-36
2022/03/31 06:46:40;;;;;;;17.70;16.00;;;2.40;99.90;;;;;;4980750;28;89781;-33
2022/03/31 06:49:06;;;;;;;18.08;16.42;;;2.40;99.90;;;;;;4979616;28;90531;-33
2022/03/31 06:51:31;;;;;;;19.15;17.08;;;2.40;99.90;;;;;;4979788;28;91039;-34
2022/03/31 06:53:57;;;;;;;18.40;15.63;;;2.40;99.90;;;;;;4961588;28;90038;-34
2022/03/31 06:56:27;;;;;;;21.50;18.60;;;2.50;99.90;;;;;;4980296;28;88422;-33
2022/03/31 06:58:53;;;;;;;18.95;16.30;;;2.50;99.90;;;;;;4980011;28;90627;-37
2022/03/31 07:01:19;;;;;;;21.33;19.02;;;2.50;99.90;;;;;;4981148;28;89133;-34
2022/03/31 07:03:44;;;;;;;21.40;18.10;;;2.50;99.90;;;;;;4979747;28;89811;-33
2022/03/31 07:06:10;;;;;;;24.45;18.75;;;2.50;99.90;;;;;;4980572;28;90034;-32
2022/03/31 07:08:36;;;;;;;23.30;20.85;;;2.50;99.90;;;;;;4978815;28;90350;-34
2022/03/31 07:11:03;;;;;;;22.95;18.48;;;2.60;99.90;;;;;;4980053;28;89141;-33
2022/03/31 07:13:29;;;;;;;23.88;19.85;;;2.60;99.90;;;;;;4980229;28;89828;-32
2022/03/31 07:15:54;;;;;;;22.77;19.98;;;2.60;99.90;;;;;;4980357;28;90309;-33
2022/03/31 07:18:20;;;;;;;23.77;19.98;;;2.60;99.90;;;;;;4979989;28;90170;-34
2022/03/31 07:20:45;;;;;;;20.63;18.65;;;2.70;99.90;;;;;;4979113;28;89705;-35
2022/03/31 07:23:12;;;;;;;25.17;22.02;;;2.60;99.90;;;;;;4979667;28;94826;-35
2022/03/31 07:25:38;;;;;;;27.75;21.58;;;2.60;99.90;;;;;;4980121;28;90305;-32
2022/03/31 07:28:04;;;;;;;22.52;19.23;;;2.60;99.90;;;;;;4980226;28;89990;-33
2022/03/31 07:30:30;;;;;;;20.90;18.70;;;2.70;99.90;;;;;;4979593;28;90821;-33
2022/03/31 07:32:59;;;;;;;23.55;21.05;;;2.70;99.90;;;;;;4979539;28;90811;-35
2022/03/31 07:35:29;;;;;;;22.52;18.23;;;2.70;99.90;;;;;;4979396;28;88807;-32
2022/03/31 07:37:56;;;;;;;20.58;18.38;;;2.70;99.90;;;;;;4979417;28;90770;-33
2022/03/31 07:40:24;;;;;;;19.60;16.23;;;2.70;99.90;;;;;;4979614;28;89809;-34
2022/03/31 07:42:50;;;;;;;19.67;15.80;;;2.70;99.90;;;;;;4900686;28;89864;-33
2022/03/31 07:45:17;;;;;;;21.58;19.17;;;2.70;99.90;;;;;;4979142;28;88668;-32
2022/03/31 07:47:43;;;;;;;22.70;18.27;;;2.80;99.90;;;;;;4979436;28;89143;-34
2022/03/31 07:50:11;;;;;;;20.45;18.25;;;2.80;99.90;;;;;;4979731;28;89699;-35
2022/03/31 07:52:37;;;;;;;18.52;14.30;;;2.80;99.90;;;;;;4977572;28;89647;-35
2022/03/31 07:55:04;;;;;;;23.30;19.23;;;2.80;99.90;;;;;;4976599;28;88945;-34
2022/03/31 07:57:30;;;;;;;22.02;18.70;;;2.80;99.90;;;;;;4977168;28;91264;-34
2022/03/31 07:59:56;;;;;;;26.42;20.42;;;2.90;99.90;;;;;;4977230;28;90631;-33
2022/03/31 08:02:24;;;;;;;22.48;20.17;;;3.00;99.90;;;;;;4977249;28;89328;-36
2022/03/31 08:04:50;;;;;;;23.57;20.03;;;2.90;99.90;;;;;;4976953;28;90048;-34
2022/03/31 08:07:16;;;;;;;23.10;19.02;;;3.00;99.90;;;;;;4976836;28;89910;-35
2022/03/31 08:09:42;;;;;;;21.98;19.27;;;2.90;99.90;;;;;;4976203;28;89752;-35
2022/03/31 08:12:08;;;;;;;18.30;16.42;;;3.00;99.90;;;;;;4977723;28;89763;-36
2022/03/31 08:14:34;;;;;;;19.38;17.30;;;3.00;99.90;;;;;;4977761;28;88879;-34
2022/03/31 08:16:59;;;;;;;20.67;18.52;;;2.90;99.90;;;;;;4977459;28;90059;-33
2022/03/31 08:19:27;;;;;;;22.25;19.52;;;3.10;99.90;;;;;;4976314;28;90382;-33
2022/03/31 08:21:53;;;;;;;24.27;21.73;;;3.00;99.90;;;;;;4976352;28;89696;-33
2022/03/31 08:24:18;;;;;;;22.15;19.98;;;3.00;99.90;;;;;;4978407;28;88136;-32
2022/03/31 08:26:46;;;;;;;22.15;18.88;;;3.00;99.90;;;;;;4976774;28;90877;-33
2022/03/31 08:29:11;;;;;;;23.30;19.63;;;3.00;99.90;;;;;;4976944;28;89772;-32
2022/03/31 08:31:37;;;;;;;21.27;19.20;;;3.00;99.90;;;;;;4976026;28;89769;-37
2022/03/31 08:34:04;;;;;;;21.58;17.92;;;3.00;99.90;;;;;;4976833;28;89670;-34
2022/03/31 08:36:30;;;;;;;17.70;15.57;;;3.00;99.90;;;;;;4976625;28;90323;-34
2022/03/31 08:38:57;;;;;;;13.25;11.90;;;3.10;99.90;;;;;;4976582;28;89774;-34
2022/03/31 08:41:25;;;;;;;12.90;10.68;;;3.10;99.90;;;;;;4977140;28;89876;-32
2022/03/31 08:43:50;;;;;;;12.13;10.88;;;3.10;99.90;;;;;;4975503;28;89906;-35
2022/03/31 08:46:16;;;;;;;12.43;9.75;;;3.00;99.90;;;;;;4975845;28;90673;-37
2022/03/31 08:48:43;;;;;;;13.05;11.60;;;3.00;99.90;;;;;;4977277;28;89827;-35
2022/03/31 08:51:09;;;;;;;10.55;8.68;;;3.00;99.90;;;;;;4976528;28;89561;-35
2022/03/31 08:53:35;;;;;;;11.65;8.20;;;2.90;99.90;;;;;;4976745;28;88494;-37
2022/03/31 08:56:01;;;;;;;8.82;7.95;;;2.80;99.90;;;;;;4977392;28;90065;-35
2022/03/31 08:58:26;;;;;;;12.23;9.32;;;2.90;99.90;;;;;;4976410;28;90266;-34
2022/03/31 09:00:53;;;;;;;9.57;7.93;;;2.80;99.90;;;;;;4977155;28;90120;-32
2022/03/31 09:03:19;;;;;;;6.45;5.85;;;2.70;99.90;;;;;;4977220;28;88254;-34
2022/03/31 09:05:49;;;;;;;6.93;6.22;;;2.60;99.90;;;;;;4976728;28;90640;-37
2022/03/31 09:08:16;;;;;;;5.45;4.53;;;2.60;99.90;;;;;;4976396;28;90582;-36
2022/03/31 09:10:49;;;;;;;7.10;6.15;;;2.50;99.90;;;;;;4977096;28;90601;-35
2022/03/31 09:13:40;;;;;;;7.38;6.63;;;2.50;99.90;;;;;;4977066;28;90086;-34
2022/03/31 09:16:11;;;;;;;6.45;5.18;;;2.50;99.90;;;;;;4980469;28;89966;-33
2022/03/31 09:18:38;;;;;;;7.85;6.63;;;2.50;99.90;;;;;;4980860;28;89472;-32
2022/03/31 09:21:06;;;;;;;8.27;6.57;;;2.50;99.90;;;;;;4979909;28;88464;-33
2022/03/31 09:23:46;;;;;;;7.30;6.53;;;2.40;99.90;;;;;;4980508;28;89571;-34
2022/03/31 09:26:15;;;;;;;5.35;4.75;;;2.30;99.90;;;;;;4980374;28;90457;-34
2022/03/31 09:28:45;;;;;;;6.22;5.15;;;2.40;99.90;;;;;;4979383;28;89535;-36
2022/03/31 09:31:12;;;;;;;6.38;5.75;;;2.30;99.90;;;;;;4980739;28;89060;-34
2022/03/31 09:33:48;;;;;;;9.48;6.32;;;2.30;99.90;;;;;;4979661;28;90320;-34
2022/03/31 09:36:22;;;;;;;5.70;5.22;;;2.40;99.90;;;;;;4980078;28;90844;-36
2022/03/31 09:38:58;;;;;;;5.30;4.78;;;2.30;99.90;;;;;;4979870;28;89527;-34
2022/03/31 09:41:32;;;;;;;8.38;6.95;;;2.40;99.90;;;;;;4981285;28;89782;-33
2022/03/31 09:44:01;;;;;;;6.65;5.97;;;2.30;99.90;;;;;;4979542;28;88979;-33
2022/03/31 09:46:30;;;;;;;4.95;4.45;;;2.20;99.90;;;;;;4979570;28;89337;-33
2022/03/31 09:48:56;;;;;;;6.95;6.25;;;2.00;99.90;;;;;;4979007;28;89809;-34
2022/03/31 09:51:24;;;;;;;6.55;5.70;;;2.00;99.90;;;;;;4980486;28;89808;-36
2022/03/31 09:53:53;;;;;;;5.67;5.17;;;2.00;99.90;;;;;;4980151;28;88297;-33
2022/03/31 09:56:27;;;;;;;5.22;4.75;;;2.00;99.90;;;;;;4979712;28;90460;-32
2022/03/31 09:58:56;;;;;;;7.63;6.20;;;2.00;99.90;;;;;;4978906;28;90622;-36
2022/03/31 10:01:22;;;;;;;9.15;7.53;;;1.80;99.90;;;;;;4979795;28;90560;-33
2022/03/31 10:03:49;;;;;;;5.50;5.00;;;1.70;99.90;;;;;;4979567;28;88059;-33
2022/03/31 10:06:16;;;;;;;8.00;7.25;;;1.60;99.90;;;;;;4979273;28;90286;-34
2022/03/31 10:08:44;;;;;;;8.55;7.30;;;1.60;99.90;;;;;;4979184;28;90554;-36
2022/03/31 10:11:14;;;;;;;5.90;5.22;;;1.60;99.90;;;;;;4979865;28;88678;-33
2022/03/31 10:14:12;;;;;;;5.95;5.32;;;1.50;99.90;;;;;;4980017;28;88718;-34
2022/03/31 10:16:47;;;;;;;6.60;5.97;;;1.50;99.90;;;;;;4979779;28;89972;-32
2022/03/31 10:19:25;;;;;;;6.40;5.80;;;1.60;99.90;;;;;;4979669;28;90098;-35
2022/03/31 10:22:04;;;;;;;;;;;1.40;99.90;;;;;;4978604;28;89714;-35
2022/03/31 10:24:46;;;;;;;6.28;5.68;;;1.40;99.90;;;;;;4996256;28;89344;-36
2022/03/31 10:27:27;;;;;;;6.90;6.20;;;1.30;99.90;;;;;;4959427;28;90158;-37
2022/03/31 10:29:53;;;;;;;6.35;5.85;;;1.30;99.90;;;;;;4959171;28;89610;-33
2022/03/31 10:32:24;;;;;;;6.65;5.90;;;1.20;99.90;;;;;;4959135;28;90155;-33
2022/03/31 10:34:51;;;;;;;17.85;15.88;;;1.30;99.90;;;;;;4958827;28;89285;-34
2022/03/31 10:37:35;;;;;;;37.78;30.10;;;1.30;99.90;;;;;;4957845;28;91376;-35
2022/03/31 10:40:04;;;;;;;22.58;20.65;;;1.20;99.90;;;;;;4958392;28;89710;-37
2022/03/31 10:42:30;;;;;;;18.48;16.67;;;1.20;99.90;;;;;;4958813;28;90328;-33
2022/03/31 10:45:35;;;;;;;7.22;6.63;;;1.10;99.90;;;;;;4958122;28;90461;-34
2022/03/31 10:48:19;;;;;;;9.25;8.45;;;1.10;99.90;;;;;;4949249;28;90271;-34
2022/03/31 10:50:46;;;;;;;8.93;8.10;;;1.10;99.90;;;;;;4958148;28;90686;-33
2022/03/31 10:53:12;;;;;;;6.97;6.35;;;1.10;99.90;;;;;;4958629;28;90043;-34
2022/03/31 10:55:58;;;;;;;7.93;7.22;;;1.10;99.90;;;;;;4941454;28;89544;-35
2022/03/31 10:58:28;;;;;;;11.35;9.07;;;1.10;99.90;;;;;;4958597;28;92876;-32
2022/03/31 11:01:02;;;;;;;8.32;7.55;;;1.10;99.90;;;;;;4958681;28;90304;-34
2022/03/31 11:03:28;;;;;;;7.82;7.07;;;1.10;99.90;;;;;;4958350;28;88535;-33
2022/03/31 11:06:01;;;;;;;9.32;7.90;;;1.10;99.90;;;;;;4958370;28;89571;-37
2022/03/31 11:08:27;;;;;;;9.07;8.05;;;1.10;99.90;;;;;;4958953;28;89598;-33
2022/03/31 11:10:54;;;;;;;9.70;8.68;;;1.10;99.90;;;;;;4958014;28;90082;-35
2022/03/31 11:13:34;;;;;;;9.18;8.30;;;1.10;99.90;;;;;;4958725;28;90541;-33
2022/03/31 11:16:01;;;;;;;9.05;8.15;;;1.10;99.90;;;;;;4958828;28;89707;-33
2022/03/31 11:18:27;;;;;;;10.27;9.38;;;1.10;99.90;;;;;;4959068;28;90406;-35
2022/03/31 11:21:01;;;;;;;12.70;10.23;;;1.20;99.90;;;;;;4940119;28;89927;-33
2022/03/31 11:23:28;;;;;;;11.25;10.02;;;1.10;99.90;;;;;;4957958;28;88608;-35
2022/03/31 11:25:54;;;;;;;15.40;12.98;;;1.10;99.90;;;;;;4957300;28;89363;-35
2022/03/31 11:28:20;;;;;;;43.17;28.67;;;1.10;99.90;;;;;;4957855;28;90332;-34
2022/03/31 11:30:48;;;;;;;19.35;14.32;;;1.20;99.90;;;;;;4957680;28;90083;-35
2022/03/31 11:33:14;;;;;;;20.27;17.25;;;1.20;99.90;;;;;;4957273;28;89611;-37
2022/03/31 11:35:41;;;;;;;17.15;14.65;;;1.20;99.90;;;;;;4957401;28;89665;-37
2022/03/31 11:38:14;;;;;;;15.25;13.55;;;1.20;99.90;;;;;;4957112;28;90378;-37
2022/03/31 11:40:47;;;;;;;18.00;14.98;;;1.20;99.90;;;;;;4956793;28;90674;-35
2022/03/31 11:43:15;;;;;;;14.70;13.13;;;1.30;99.90;;;;;;4957371;28;90473;-36
2022/03/31 11:45:49;;;;;;;16.60;13.10;;;1.30;99.90;;;;;;4957742;28;89846;-33
2022/03/31 11:48:20;;;;;;;14.93;13.43;;;1.30;99.90;;;;;;4957741;28;89150;-33
2022/03/31 11:50:52;;;;;;;17.60;15.05;;;1.40;99.90;;;;;;4957190;28;89781;-34
2022/03/31 11:53:24;;;;;;;17.20;15.38;;;1.50;99.90;;;;;;4956674;28;89584;-34
2022/03/31 11:55:59;;;;;;;18.67;16.63;;;1.60;99.90;;;;;;4957571;28;89578;-34
2022/03/31 11:58:26;;;;;;;19.58;17.45;;;1.70;99.90;;;;;;4957702;28;90220;-34
2022/03/31 12:00:52;;;;;;;27.40;20.80;;;1.80;99.90;;;;;;4956998;28;88579;-33
2022/03/31 12:03:18;;;;;;;24.35;18.73;;;1.80;99.90;;;;;;4957234;28;89867;-34
2022/03/31 12:06:05;;;;;;;21.52;17.90;;;1.90;99.90;;;;;;4956344;28;89185;-35
2022/03/31 12:08:31;;;;;;;26.67;21.13;;;2.00;99.90;;;;;;4957525;28;89812;-35
2022/03/31 12:10:57;;;;;;;27.08;22.30;;;2.10;99.90;;;;;;4957416;28;89329;-31
2022/03/31 12:13:25;;;;;;;26.25;21.65;;;2.10;99.90;;;;;;4956632;28;89460;-35
2022/03/31 12:16:02;;;;;;;28.40;23.50;;;2.10;99.90;;;;;;4957423;28;89708;-32
2022/03/31 12:18:30;;;;;;;29.75;24.30;;;2.20;99.90;;;;;;4957528;28;89382;-34
2022/03/31 12:21:00;;;;;;;;;;;2.30;99.90;;;;;;5006959;22;90516;-32
2022/03/31 12:23:26;;;;;;;38.63;27.45;;;2.40;99.90;;;;;;4998900;28;90792;-32
2022/03/31 12:25:53;;;;;;;37.10;26.75;;;2.70;99.90;;;;;;4996171;28;89753;-32
2022/03/31 12:28:23;;;;;;;35.30;25.33;;;2.80;99.90;;;;;;4996795;28;91126;-32
2022/03/31 12:30:51;;;;;;;33.33;25.02;;;3.00;99.90;;;;;;4996324;28;91266;-35
2022/03/31 12:33:30;;;;;;;33.80;24.95;;;3.20;99.90;;;;;;4996855;28;90639;-34
2022/03/31 12:36:03;;;;;;;29.70;23.63;;;3.30;99.90;;;;;;4997039;28;89671;-32
2022/03/31 12:38:36;;;;;;;27.65;22.83;;;3.30;99.90;;;;;;4996230;28;90028;-33
2022/03/31 12:41:03;;;;;;;39.78;27.38;;;3.40;99.90;;;;;;4996233;28;88838;-35
2022/03/31 12:43:28;;;;;;;29.33;21.25;;;3.50;99.90;;;;;;4995994;28;89593;-33
2022/03/31 12:45:54;;;;;;;36.17;24.15;;;3.50;99.90;;;;;;4996705;28;89513;-35
2022/03/31 12:48:21;;;;;;;33.45;27.08;;;3.50;99.90;;;;;;4995230;28;90605;-32
2022/03/31 12:50:46;;;;;;;32.63;24.38;;;3.50;99.90;;;;;;4995649;28;89589;-33
2022/03/31 12:53:12;;;;;;;35.53;27.38;;;3.50;99.90;;;;;;4996518;28;90304;-32